Aérodrome :
LOGIN :

S'inscrire | Disclaimer

   EN    FR    IT 

 










Légende :    VFR   VFR Marginal   IFR   IFR Intensif   IFR Très Intensif
Visi : 
Plafond : 
>= 8 km
>= 3000ft
5 à 8 km
1000 à 3000 ft
1500m à 5 km
500 à 1000 ft
800 à 1500m
200 à 500 ft
< 800m
< 200 ft
Symboles :   Orages  Brouillard  Fortes neiges  Fortes précipitations  Vent > 20 kt
SIGMETs :   Divers  Orages  Givrage  Turbulence  Onde Orograph.  Cendres Volcan.







- Altitude de l'aérodrome : 171 ft
- Code IATA : EGC
- Voir les cartes d'approche


LFBE - Bergerac

DERNIER METAR :
  • 152300Z AUTO 08002KT CAVOK 12/12 Q1013

METARs EXPIRÉS :
  • 152230Z AUTO 06002KT CAVOK 12/12 Q1013
  • 152200Z AUTO 00000KT 8000 FEW037 OVC060 12/11 Q1013
  • 152130Z AUTO VRB01KT 4900 BR FEW002 BKN052 11/11 Q1013
  • 152100Z AUTO 00000KT 1400 R27/1900D BR FEW038 BKN049 11/11 Q1013
  • 152030Z AUTO 17002KT 2100 1000 R27/1300D BR FEW033 12/11 Q1012

TAF AMD TAF LFBE
Valide du 15 à 15h jusqu'au 16 à 12h UTC


151508Z 1515/1612 30005KT 9999 BKN020
TEMPO 1515/1517 4000 -RA OVC010
BECMG 1517/1519 VRB02KT BKN020
BECMG 1520/1522 CAVOK
PROB40 1601/1609 3000 BR
PROB30 1604/1607 0800 FG VV///
Pas de NOTAMs connus pour ce terrain.



MET'MAP, la Météo Aéronautique d'un coup d'oeil ! - Copyright ORBIFLY Décembre 2007 - Disclaimer

ORBIFLY MET'MAP TEAM :

Programmation & Développement : Alexandra Zaïnal
Conception & Développement : Baudouin d'Aumeries
Co-Programmation & Développement : Marc-Olivier Méhu
Soutien technique & logistique : Manuel Goepfert

Contact : metmap@orbifly.com




SOURCES & CREDITS :

   NOAA